Time;durP1;ratioP1;P1;durP2;ratioP2;P2;SDS_P1;SDS_P2;PMS_P1;PMS_P2;Temp;Humidity;BMP_temperature;BMP_pressure;BME280_temperature;BME280_humidity;BME280_pressure;Samples;Min_cycle;Max_cycle;Signal;HPM_P1;HPM_P2
2023/10/14 00:01:27;;;;;;;5.55;3.08;;;;;;;;;;5111891;28;20051;-81
2023/10/14 00:03:55;;;;;;;4.50;3.40;;;;;;;;;;5111618;28;20223;-81
2023/10/14 00:06:24;;;;;;;5.03;3.42;;;;;;;;;;5111638;28;20047;-81
2023/10/14 00:11:42;;;;;;;7.05;3.30;;;;;;;;;;5111987;28;20040;-78
2023/10/14 00:14:14;;;;;;;4.60;3.30;;;;;;;;;;5111102;28;20577;-82
2023/10/14 00:16:48;;;;;;;4.70;3.25;;;;;;;;;;5111534;28;20047;-80
2023/10/14 00:19:18;;;;;;;4.63;3.40;;;;;;;;;;5111294;28;20527;-80
2023/10/14 00:21:46;;;;;;;6.22;3.63;;;;;;;;;;5110997;28;20564;-81
2023/10/14 00:24:25;;;;;;;5.63;3.33;;;;;;;;;;5110588;28;20075;-80
2023/10/14 00:26:55;;;;;;;4.78;3.30;;;;;;;;;;5111275;28;20142;-79
2023/10/14 00:29:22;;;;;;;5.13;3.55;;;;;;;;;;5110446;28;20050;-80
2023/10/14 00:31:52;;;;;;;5.65;3.47;;;;;;;;;;5111148;28;20181;-79
2023/10/14 00:34:25;;;;;;;10.55;3.95;;;;;;;;;;5111269;28;20044;-80
2023/10/14 00:37:01;;;;;;;5.43;3.38;;;;;;;;;;5094140;28;20043;-75
2023/10/14 00:39:28;;;;;;;6.07;3.22;;;;;;;;;;5110719;28;20047;-80
2023/10/14 00:41:58;;;;;;;7.38;3.30;;;;;;;;;;5110903;28;20140;-80
2023/10/14 00:44:25;;;;;;;6.22;3.20;;;;;;;;;;5110512;28;20528;-80
2023/10/14 00:46:53;;;;;;;13.07;3.10;;;;;;;;;;5111100;28;20071;-80
2023/10/14 00:49:22;;;;;;;5.07;3.00;;;;;;;;;;5110925;28;20058;-79
2023/10/14 00:51:55;;;;;;;6.25;2.95;;;;;;;;;;5110761;28;20051;-78
2023/10/14 00:59:48;;;;;;;6.40;2.88;;;;;;;;;;5110138;28;20135;-77
2023/10/14 01:02:18;;;;;;;6.85;2.83;;;;;;;;;;5110672;28;20044;-78
2023/10/14 01:04:51;;;;;;;11.95;3.40;;;;;;;;;;5110040;28;20407;-80
2023/10/14 01:07:18;;;;;;;10.52;2.85;;;;;;;;;;5110765;28;20070;-82
2023/10/14 01:12:26;;;;;;;6.90;3.00;;;;;;;;;;5110100;28;20044;-81
2023/10/14 01:14:58;;;;;;;6.20;2.72;;;;;;;;;;5110217;28;20059;-81
2023/10/14 01:17:29;;;;;;;4.65;2.42;;;;;;;;;;5109802;28;20483;-80
2023/10/14 01:20:00;;;;;;;7.53;2.47;;;;;;;;;;5110107;28;20047;-77
2023/10/14 01:22:27;;;;;;;6.43;2.70;;;;;;;;;;5092651;28;20047;-81
2023/10/14 01:24:55;;;;;;;9.23;3.30;;;;;;;;;;5109143;28;20058;-81
2023/10/14 01:27:24;;;;;;;7.20;2.90;;;;;;;;;;5110383;28;20045;-80
2023/10/14 01:29:51;;;;;;;7.40;2.60;;;;;;;;;;5110087;28;20055;-79
2023/10/14 01:32:26;;;;;;;6.97;2.80;;;;;;;;;;5110129;28;20096;-79
2023/10/14 01:34:58;;;;;;;6.18;2.63;;;;;;;;;;5109942;28;20087;-80
2023/10/14 01:37:27;;;;;;;6.97;2.78;;;;;;;;;;5110045;28;20089;-80
2023/10/14 01:40:06;;;;;;;8.93;3.00;;;;;;;;;;5109112;28;20100;-80
2023/10/14 01:42:33;;;;;;;6.95;2.53;;;;;;;;;;5109115;28;20131;-81
2023/10/14 01:45:00;;;;;;;8.40;2.92;;;;;;;;;;5109863;28;20066;-81
2023/10/14 01:47:32;;;;;;;8.10;2.80;;;;;;;;;;5110028;28;20056;-80
2023/10/14 01:50:00;;;;;;;7.65;2.63;;;;;;;;;;5109474;28;20043;-80
2023/10/14 01:52:26;;;;;;;14.88;3.20;;;;;;;;;;5109435;28;20126;-81
2023/10/14 01:54:56;;;;;;;9.30;2.90;;;;;;;;;;5108940;28;20054;-80
2023/10/14 01:57:24;;;;;;;8.15;3.25;;;;;;;;;;5109541;28;20443;-81
2023/10/14 01:59:51;;;;;;;8.48;2.85;;;;;;;;;;5109846;28;20053;-80
2023/10/14 02:02:20;;;;;;;8.07;2.40;;;;;;;;;;5109156;28;20040;-81
2023/10/14 02:04:47;;;;;;;6.40;2.72;;;;;;;;;;5109607;28;20070;-80
2023/10/14 02:07:21;;;;;;;8.30;2.80;;;;;;;;;;5109262;28;20416;-80
2023/10/14 02:09:55;;;;;;;7.47;2.60;;;;;;;;;;5109200;28;20047;-77
2023/10/14 02:12:24;;;;;;;7.38;3.08;;;;;;;;;;5109134;28;20101;-81
2023/10/14 02:14:57;;;;;;;9.50;2.67;;;;;;;;;;5109422;28;20054;-80
2023/10/14 02:17:24;;;;;;;8.40;2.80;;;;;;;;;;5109001;28;20085;-78
2023/10/14 02:19:54;;;;;;;8.15;3.05;;;;;;;;;;5109231;28;20556;-82
2023/10/14 02:22:22;;;;;;;10.13;3.10;;;;;;;;;;5109223;28;20048;-81
2023/10/14 02:24:49;;;;;;;9.07;3.10;;;;;;;;;;5108712;28;20437;-80
2023/10/14 02:27:16;;;;;;;8.50;2.60;;;;;;;;;;5108652;28;20096;-81
2023/10/14 02:29:46;;;;;;;12.77;2.85;;;;;;;;;;5109165;28;20040;-79
2023/10/14 02:32:13;;;;;;;11.23;2.70;;;;;;;;;;5108555;28;20044;-81
2023/10/14 02:34:44;;;;;;;6.80;2.70;;;;;;;;;;5109409;28;20051;-80
2023/10/14 02:37:13;;;;;;;;;;;;;;;;;;5109182;28;20530;-81
2023/10/14 02:39:44;;;;;;;11.63;3.33;;;;;;;;;;5109076;28;19923;-80
2023/10/14 02:42:14;;;;;;;8.75;2.80;;;;;;;;;;5108535;28;20495;-79
2023/10/14 02:44:47;;;;;;;8.88;2.50;;;;;;;;;;5108945;28;20393;-81
2023/10/14 02:47:14;;;;;;;8.60;2.80;;;;;;;;;;5108830;28;20048;-80
2023/10/14 02:49:41;;;;;;;9.90;3.05;;;;;;;;;;5109056;28;20048;-79
2023/10/14 02:52:10;;;;;;;8.48;2.90;;;;;;;;;;5109658;28;20096;-79
2023/10/14 02:54:44;;;;;;;9.60;3.10;;;;;;;;;;5113033;28;20048;-80
2023/10/14 02:59:46;;;;;;;8.77;2.72;;;;;;;;;;5113164;28;20055;-80
2023/10/14 03:02:24;;;;;;;10.13;2.78;;;;;;;;;;5112406;28;20534;-81
2023/10/14 03:12:39;;;;;;;7.25;2.63;;;;;;;;;;5112608;28;20074;-81
2023/10/14 03:15:19;;;;;;;11.55;2.72;;;;;;;;;;5112793;28;20048;-81
2023/10/14 03:17:56;;;;;;;6.43;2.97;;;;;;;;;;5112295;28;20039;-80
2023/10/14 03:22:58;;;;;;;9.48;3.10;;;;;;;;;;5111938;28;20112;-78
2023/10/14 03:25:25;;;;;;;8.35;3.13;;;;;;;;;;5112637;28;20039;-80
2023/10/14 03:28:07;;;;;;;6.38;2.83;;;;;;;;;;5112560;28;20111;-76
2023/10/14 03:30:40;;;;;;;8.85;2.90;;;;;;;;;;5094409;28;20118;-73
2023/10/14 03:33:09;;;;;;;9.30;2.63;;;;;;;;;;5111867;28;20407;-75
2023/10/14 03:35:43;;;;;;;8.57;3.03;;;;;;;;;;5112570;28;20048;-74
2023/10/14 03:38:58;;;;;;;7.72;3.10;;;;;;;;;;5112023;28;20043;-77
2023/10/14 03:41:03;;;;;;;8.20;3.10;;;;;;;;;;5097706;28;20048;-75
2023/10/14 03:43:42;;;;;;;7.68;3.47;;;;;;;;;;5112128;28;20054;-81
2023/10/14 03:46:32;;;;;;;6.38;2.63;;;;;;;;;;5111924;28;20573;-82
2023/10/14 03:49:02;;;;;;;9.05;3.20;;;;;;;;;;5112334;28;20139;-81
2023/10/14 03:51:30;;;;;;;6.55;2.72;;;;;;;;;;5112086;28;20092;-81
2023/10/14 03:53:58;;;;;;;9.82;3.05;;;;;;;;;;5111793;28;20056;-77
2023/10/14 03:56:27;;;;;;;7.45;2.90;;;;;;;;;;5111800;28;20048;-80
2023/10/14 03:58:55;;;;;;;8.23;3.13;;;;;;;;;;5111962;28;20071;-81
2023/10/14 04:01:32;;;;;;;5.95;2.28;;;;;;;;;;5111783;28;20077;-78
2023/10/14 04:04:02;;;;;;;8.27;3.00;;;;;;;;;;5110674;28;20077;-77
2023/10/14 04:06:34;;;;;;;8.55;3.60;;;;;;;;;;5111626;28;20134;-79
2023/10/14 04:09:08;;;;;;;9.23;2.90;;;;;;;;;;5111459;28;20123;-74
2023/10/14 04:11:38;;;;;;;6.10;2.70;;;;;;;;;;5110189;28;20050;-80
2023/10/14 04:14:08;;;;;;;12.20;2.65;;;;;;;;;;5111076;28;20089;-81
2023/10/14 04:19:27;;;;;;;5.22;2.38;;;;;;;;;;5111727;28;20127;-75
2023/10/14 04:22:00;;;;;;;8.68;2.97;;;;;;;;;;5111329;28;20035;-78
2023/10/14 04:29:51;;;;;;;7.13;2.80;;;;;;;;;;5111331;28;20060;-81
2023/10/14 04:32:25;;;;;;;9.80;2.90;;;;;;;;;;5110731;28;20052;-82
2023/10/14 04:34:54;;;;;;;5.28;2.70;;;;;;;;;;5110974;28;20084;-77
2023/10/14 04:37:21;;;;;;;4.10;2.30;;;;;;;;;;5111102;28;20044;-79
2023/10/14 04:39:57;;;;;;;6.35;3.05;;;;;;;;;;5110844;28;20144;-80
2023/10/14 04:42:36;;;;;;;7.70;2.92;;;;;;;;;;5110678;28;20051;-80
2023/10/14 04:45:04;;;;;;;11.82;3.05;;;;;;;;;;5110612;28;20357;-75
2023/10/14 04:47:36;;;;;;;8.02;2.47;;;;;;;;;;5110831;28;20051;-81
2023/10/14 04:50:14;;;;;;;8.23;3.33;;;;;;;;;;5111435;28;20475;-78
2023/10/14 04:52:42;;;;;;;7.50;2.90;;;;;;;;;;5111881;28;20043;-77
2023/10/14 04:58:11;;;;;;;7.50;2.95;;;;;;;;;;5110508;28;20047;-80
2023/10/14 05:00:43;;;;;;;7.00;3.07;;;;;;;;;;5110729;28;20062;-80
2023/10/14 05:03:14;;;;;;;9.07;3.13;;;;;;;;;;5110318;28;20078;-71
2023/10/14 05:08:44;;;;;;;8.48;2.90;;;;;;;;;;5081562;28;20040;-79
2023/10/14 05:11:15;;;;;;;7.68;2.88;;;;;;;;;;5110372;28;20519;-76
2023/10/14 05:16:27;;;;;;;7.90;2.97;;;;;;;;;;5110258;28;20051;-81
2023/10/14 05:19:05;;;;;;;7.45;2.95;;;;;;;;;;5110206;28;20043;-80
2023/10/14 05:21:35;;;;;;;10.15;2.88;;;;;;;;;;5110535;28;20043;-80
2023/10/14 05:24:04;;;;;;;8.45;2.80;;;;;;;;;;5109928;28;20050;-71
2023/10/14 05:26:35;;;;;;;4.95;2.65;;;;;;;;;;5109762;28;20044;-81
2023/10/14 05:29:11;;;;;;;8.00;2.75;;;;;;;;;;5110062;28;20141;-79
2023/10/14 05:31:37;;;;;;;7.75;2.83;;;;;;;;;;5110104;28;20054;-80
2023/10/14 05:34:05;;;;;;;8.57;2.42;;;;;;;;;;5109375;28;20399;-81
2023/10/14 05:36:34;;;;;;;6.85;2.70;;;;;;;;;;5110337;28;20135;-81
2023/10/14 05:39:02;;;;;;;10.25;3.25;;;;;;;;;;5109293;28;20048;-81
2023/10/14 05:41:30;;;;;;;11.90;3.63;;;;;;;;;;5110110;28;20043;-81
2023/10/14 05:43:57;;;;;;;8.15;3.00;;;;;;;;;;5109246;28;20492;-81
2023/10/14 05:46:23;;;;;;;8.65;3.00;;;;;;;;;;5110001;28;20532;-80
2023/10/14 05:48:53;;;;;;;9.00;3.30;;;;;;;;;;5109371;28;20549;-81
2023/10/14 05:51:20;;;;;;;8.67;3.07;;;;;;;;;;5109655;28;20495;-81
2023/10/14 05:53:47;;;;;;;4.40;2.42;;;;;;;;;;5109327;28;20126;-82
2023/10/14 05:56:15;;;;;;;11.65;3.20;;;;;;;;;;5109755;28;20044;-79
2023/10/14 05:58:45;;;;;;;8.70;2.78;;;;;;;;;;5109672;28;20047;-79
2023/10/14 06:01:16;;;;;;;7.15;2.67;;;;;;;;;;5109936;28;20050;-80
2023/10/14 06:03:43;;;;;;;5.82;2.42;;;;;;;;;;5109111;28;20122;-80
2023/10/14 06:06:14;;;;;;;8.13;3.05;;;;;;;;;;5109598;28;20044;-80
2023/10/14 06:08:49;;;;;;;12.68;2.80;;;;;;;;;;5108890;28;20409;-81
2023/10/14 06:11:17;;;;;;;10.75;2.80;;;;;;;;;;5109704;28;20043;-80
2023/10/14 06:13:44;;;;;;;6.60;2.80;;;;;;;;;;5108961;28;20079;-80
2023/10/14 06:16:12;;;;;;;7.53;2.33;;;;;;;;;;5109366;28;20070;-81
2023/10/14 06:18:40;;;;;;;7.65;2.55;;;;;;;;;;5108944;28;20135;-80
2023/10/14 06:21:10;;;;;;;7.05;2.35;;;;;;;;;;5109557;28;20086;-82
2023/10/14 06:23:46;;;;;;;7.60;2.70;;;;;;;;;;5108749;28;20043;-81
2023/10/14 06:26:19;;;;;;;7.75;2.72;;;;;;;;;;5109191;28;20059;-80
2023/10/14 06:28:48;;;;;;;7.13;2.53;;;;;;;;;;5108687;28;20047;-80
2023/10/14 06:31:15;;;;;;;6.50;2.60;;;;;;;;;;5109645;28;20047;-80
2023/10/14 06:33:41;;;;;;;7.85;2.38;;;;;;;;;;5108918;28;20048;-77
2023/10/14 06:36:13;;;;;;;9.48;2.40;;;;;;;;;;5108944;28;20392;-81
2023/10/14 06:38:46;;;;;;;5.03;2.28;;;;;;;;;;5108725;28;20082;-76
2023/10/14 06:41:16;;;;;;;8.50;2.42;;;;;;;;;;5109196;28;20043;-81
2023/10/14 06:43:47;;;;;;;9.27;2.70;;;;;;;;;;5108904;28;20051;-79
2023/10/14 06:46:16;;;;;;;;;;;;;;;;;;5109335;28;20131;-80
2023/10/14 06:48:43;;;;;;;7.43;2.67;;;;;;;;;;5109134;28;19920;-79
2023/10/14 06:51:09;;;;;;;7.35;2.42;;;;;;;;;;5109295;28;20048;-74
2023/10/14 06:53:36;;;;;;;6.72;2.70;;;;;;;;;;5108604;28;20047;-80
2023/10/14 06:56:04;;;;;;;8.23;2.90;;;;;;;;;;5108491;28;20684;-79
2023/10/14 06:58:33;;;;;;;7.10;2.70;;;;;;;;;;5108567;28;20433;-80
2023/10/14 07:01:00;;;;;;;7.85;2.60;;;;;;;;;;5108869;28;20082;-73
2023/10/14 07:03:28;;;;;;;6.88;2.58;;;;;;;;;;5109043;28;20075;-81
2023/10/14 07:08:23;;;;;;;6.40;2.47;;;;;;;;;;5108572;28;20043;-80
2023/10/14 07:10:52;;;;;;;6.68;2.50;;;;;;;;;;5108750;28;20046;-80
2023/10/14 07:13:23;;;;;;;6.45;2.55;;;;;;;;;;5108726;28;20139;-77
2023/10/14 07:15:51;;;;;;;6.90;2.53;;;;;;;;;;5108350;28;20051;-80
2023/10/14 07:18:23;;;;;;;5.78;2.28;;;;;;;;;;5109068;28;20123;-79
2023/10/14 07:21:12;;;;;;;6.13;2.20;;;;;;;;;;5108797;28;20138;-74
2023/10/14 07:23:39;;;;;;;6.82;2.53;;;;;;;;;;5108628;28;20047;-81
2023/10/14 07:26:11;;;;;;;4.82;2.00;;;;;;;;;;5108466;28;20043;-80
2023/10/14 07:28:43;;;;;;;10.30;2.28;;;;;;;;;;5108826;28;20047;-80
2023/10/14 07:31:11;;;;;;;7.05;2.20;;;;;;;;;;5108612;28;20040;-76
2023/10/14 07:33:40;;;;;;;8.55;2.42;;;;;;;;;;5108473;28;20043;-80
2023/10/14 07:36:07;;;;;;;4.13;2.03;;;;;;;;;;5108156;28;20047;-80
2023/10/14 07:38:35;;;;;;;8.60;2.35;;;;;;;;;;5107038;28;20539;-77
2023/10/14 07:41:05;;;;;;;9.68;2.50;;;;;;;;;;5112370;28;20055;-80
2023/10/14 07:43:34;;;;;;;11.95;2.50;;;;;;;;;;5112390;28;20051;-80
2023/10/14 07:46:03;;;;;;;4.85;2.20;;;;;;;;;;5111706;28;20083;-80
2023/10/14 07:48:30;;;;;;;6.22;2.47;;;;;;;;;;5111810;28;20724;-79
2023/10/14 07:50:58;;;;;;;8.02;2.42;;;;;;;;;;5111952;28;20050;-81
2023/10/14 07:53:33;;;;;;;7.68;2.25;;;;;;;;;;5111897;28;20044;-80
2023/10/14 07:56:06;;;;;;;5.68;2.28;;;;;;;;;;5111786;28;20047;-80
2023/10/14 07:58:33;;;;;;;8.07;2.63;;;;;;;;;;5112235;28;20051;-79
2023/10/14 08:01:06;;;;;;;10.95;3.00;;;;;;;;;;5112017;28;20047;-71
2023/10/14 08:03:36;;;;;;;5.70;2.38;;;;;;;;;;5111879;28;20486;-80
2023/10/14 08:06:05;;;;;;;9.57;2.80;;;;;;;;;;5111389;28;20047;-80
2023/10/14 08:08:42;;;;;;;6.88;2.55;;;;;;;;;;5111118;28;20043;-80
2023/10/14 08:11:12;;;;;;;6.75;2.70;;;;;;;;;;5111365;28;20044;-79
2023/10/14 08:13:40;;;;;;;6.75;2.47;;;;;;;;;;5112056;28;20051;-80
2023/10/14 08:16:08;;;;;;;7.72;2.53;;;;;;;;;;5111114;28;20094;-79
2023/10/14 08:18:36;;;;;;;10.82;2.92;;;;;;;;;;5111668;28;20043;-76
2023/10/14 08:21:03;;;;;;;5.25;2.75;;;;;;;;;;5111143;28;20046;-80
2023/10/14 08:23:30;;;;;;;7.13;2.55;;;;;;;;;;5111098;28;20126;-77
2023/10/14 08:25:59;;;;;;;6.25;2.78;;;;;;;;;;5111260;28;20048;-81
2023/10/14 08:28:27;;;;;;;10.00;2.60;;;;;;;;;;5111119;28;20052;-80
2023/10/14 08:30:57;;;;;;;6.85;2.70;;;;;;;;;;5111365;28;20131;-81
2023/10/14 08:33:30;;;;;;;7.75;2.78;;;;;;;;;;5111315;28;20040;-80
2023/10/14 08:35:57;;;;;;;5.88;2.50;;;;;;;;;;5111262;28;20070;-80
2023/10/14 08:38:27;;;;;;;6.50;2.20;;;;;;;;;;5110677;28;20048;-80
2023/10/14 08:40:55;;;;;;;6.07;2.07;;;;;;;;;;5111018;28;20483;-79
2023/10/14 08:43:25;;;;;;;10.57;2.50;;;;;;;;;;5111063;28;20483;-80
2023/10/14 08:45:54;;;;;;;7.15;2.05;;;;;;;;;;5110676;28;20134;-82
2023/10/14 08:48:28;;;;;;;5.20;1.60;;;;;;;;;;5110830;28;20051;-80
2023/10/14 08:50:56;;;;;;;5.20;1.50;;;;;;;;;;5110613;28;20040;-80
2023/10/14 08:53:25;;;;;;;6.72;1.60;;;;;;;;;;5110915;28;20051;-78
2023/10/14 08:55:57;;;;;;;7.25;1.65;;;;;;;;;;5111637;28;20043;-81
2023/10/14 08:58:26;;;;;;;5.10;1.67;;;;;;;;;;5112682;28;20055;-79
2023/10/14 09:00:54;;;;;;;6.30;1.40;;;;;;;;;;5111279;28;20545;-78
2023/10/14 09:03:21;;;;;;;7.25;1.70;;;;;;;;;;5110981;28;20040;-81
2023/10/14 09:05:48;;;;;;;4.50;1.98;;;;;;;;;;5110367;28;20047;-75
2023/10/14 09:08:17;;;;;;;6.18;1.90;;;;;;;;;;5110059;28;20688;-72
2023/10/14 09:10:44;;;;;;;6.28;1.80;;;;;;;;;;5110498;28;20043;-78
2023/10/14 09:13:19;;;;;;;4.57;1.70;;;;;;;;;;5110818;28;20071;-80
2023/10/14 09:15:47;;;;;;;6.03;1.73;;;;;;;;;;5110098;28;20047;-80
2023/10/14 09:18:22;;;;;;;4.55;1.70;;;;;;;;;;5110274;28;20052;-81
2023/10/14 09:20:56;;;;;;;5.38;1.60;;;;;;;;;;5110519;28;20074;-81
2023/10/14 09:23:33;;;;;;;5.85;1.55;;;;;;;;;;5110052;28;20110;-81
2023/10/14 09:26:02;;;;;;;6.97;1.50;;;;;;;;;;5110017;28;20109;-81
2023/10/14 09:28:33;;;;;;;7.18;2.03;;;;;;;;;;5110390;28;20051;-82
2023/10/14 09:31:08;;;;;;;5.85;1.67;;;;;;;;;;5109876;28;20044;-79
2023/10/14 09:33:43;;;;;;;4.45;1.60;;;;;;;;;;5110309;28;20049;-81
2023/10/14 09:36:18;;;;;;;5.90;1.75;;;;;;;;;;5109650;28;20054;-83
2023/10/14 09:38:54;;;;;;;5.68;1.80;;;;;;;;;;5091411;28;20043;-80
2023/10/14 09:41:22;;;;;;;7.28;1.58;;;;;;;;;;5109467;28;20503;-82
2023/10/14 09:43:53;;;;;;;7.85;1.77;;;;;;;;;;5109812;28;20054;-79
2023/10/14 09:46:20;;;;;;;5.13;1.30;;;;;;;;;;5109796;28;20051;-76
2023/10/14 09:48:50;;;;;;;5.25;1.63;;;;;;;;;;5109912;28;20087;-79
2023/10/14 09:51:18;;;;;;;5.60;1.50;;;;;;;;;;5109682;28;20048;-81
2023/10/14 09:53:48;;;;;;;6.50;1.42;;;;;;;;;;5109318;28;20442;-81
2023/10/14 09:56:15;;;;;;;4.80;1.40;;;;;;;;;;5109303;28;20388;-82
2023/10/14 09:58:56;;;;;;;8.48;1.48;;;;;;;;;;5109978;28;20051;-81
2023/10/14 10:01:24;;;;;;;8.68;1.77;;;;;;;;;;5109253;28;20089;-81
2023/10/14 10:04:03;;;;;;;5.95;1.50;;;;;;;;;;5109429;28;20526;-81
2023/10/14 10:06:36;;;;;;;7.65;1.60;;;;;;;;;;5109192;28;20637;-79
2023/10/14 10:09:40;;;;;;;4.32;1.33;;;;;;;;;;5109165;28;20052;-75
2023/10/14 10:12:10;;;;;;;4.40;1.15;;;;;;;;;;5109387;28;20044;-81
2023/10/14 10:14:42;;;;;;;6.68;1.33;;;;;;;;;;5109466;28;20126;-79
2023/10/14 10:17:11;;;;;;;6.38;1.50;;;;;;;;;;5109075;28;20079;-74
2023/10/14 10:20:12;;;;;;;5.45;1.20;;;;;;;;;;5109696;28;20044;-82
2023/10/14 10:22:52;;;;;;;6.63;1.23;;;;;;;;;;5109531;28;20517;-80
2023/10/14 10:25:23;;;;;;;;;;;;;;;;;;5109943;28;20052;-80
2023/10/14 10:27:52;;;;;;;5.93;1.25;;;;;;;;;;5108701;28;19979;-82
2023/10/14 10:30:20;;;;;;;5.65;1.10;;;;;;;;;;5109366;28;20052;-77
2023/10/14 10:32:50;;;;;;;4.70;1.10;;;;;;;;;;5091147;28;20075;-81
2023/10/14 10:35:19;;;;;;;4.97;1.20;;;;;;;;;;5091252;28;20097;-80
2023/10/14 10:37:53;;;;;;;4.90;1.17;;;;;;;;;;5107531;28;20048;-82
2023/10/14 10:40:22;;;;;;;6.10;1.20;;;;;;;;;;5109011;28;20086;-81
2023/10/14 10:42:55;;;;;;;5.13;1.10;;;;;;;;;;5109112;28;20065;-82
2023/10/14 10:45:42;;;;;;;6.75;1.20;;;;;;;;;;5108873;28;20046;-81
2023/10/14 10:48:14;;;;;;;6.25;1.30;;;;;;;;;;5108458;28;20075;-81
2023/10/14 10:50:49;;;;;;;3.85;1.17;;;;;;;;;;5108944;28;20488;-81
2023/10/14 10:53:19;;;;;;;5.68;0.85;;;;;;;;;;5108873;28;20050;-74
2023/10/14 10:55:48;;;;;;;5.30;1.20;;;;;;;;;;5109219;28;20552;-80
2023/10/14 10:58:16;;;;;;;4.85;1.23;;;;;;;;;;5109069;28;20047;-81
2023/10/14 11:00:45;;;;;;;4.25;1.10;;;;;;;;;;5108918;28;20475;-81
2023/10/14 11:03:14;;;;;;;4.97;1.20;;;;;;;;;;5108670;28;20542;-80
2023/10/14 11:05:43;;;;;;;5.00;1.10;;;;;;;;;;5109058;28;20046;-73
2023/10/14 11:08:11;;;;;;;5.95;1.17;;;;;;;;;;5108064;28;20058;-81
2023/10/14 11:10:39;;;;;;;4.55;1.05;;;;;;;;;;5108754;28;20051;-79
2023/10/14 11:13:11;;;;;;;6.07;1.50;;;;;;;;;;5109130;28;20632;-80
2023/10/14 11:15:43;;;;;;;3.85;1.20;;;;;;;;;;5112878;28;20158;-80
2023/10/14 11:18:10;;;;;;;9.07;1.60;;;;;;;;;;5112271;28;20613;-76
2023/10/14 11:20:53;;;;;;;3.53;0.80;;;;;;;;;;5112592;28;20047;-81
2023/10/14 11:23:20;;;;;;;5.88;1.23;;;;;;;;;;5112165;28;20044;-80
2023/10/14 11:25:51;;;;;;;3.50;1.33;;;;;;;;;;5112719;28;20063;-81
2023/10/14 11:28:18;;;;;;;6.55;1.58;;;;;;;;;;5112001;28;20689;-81
2023/10/14 11:30:47;;;;;;;4.32;0.95;;;;;;;;;;5112759;28;20050;-78
2023/10/14 11:33:18;;;;;;;4.45;0.90;;;;;;;;;;5112480;28;20067;-81
2023/10/14 11:35:49;;;;;;;6.03;1.15;;;;;;;;;;5112712;28;20046;-81
2023/10/14 11:38:16;;;;;;;5.95;1.10;;;;;;;;;;5111611;28;20067;-82
2023/10/14 11:40:49;;;;;;;4.45;1.10;;;;;;;;;;5112243;28;20499;-81
2023/10/14 11:43:17;;;;;;;5.53;1.15;;;;;;;;;;5112246;28;20048;-81
2023/10/14 11:45:44;;;;;;;8.00;1.40;;;;;;;;;;5112572;28;20123;-81
2023/10/14 11:48:27;;;;;;;5.10;0.98;;;;;;;;;;5112059;28;20040;-79
2023/10/14 11:50:58;;;;;;;4.80;1.00;;;;;;;;;;5112628;28;20077;-79
2023/10/14 11:53:28;;;;;;;4.40;1.00;;;;;;;;;;5111940;28;20050;-78
2023/10/14 11:55:59;;;;;;;2.97;0.93;;;;;;;;;;5112990;28;20067;-81
2023/10/14 11:58:28;;;;;;;6.13;1.00;;;;;;;;;;5112596;28;20044;-81
2023/10/14 12:00:55;;;;;;;5.25;1.20;;;;;;;;;;5113124;28;20046;-80
2023/10/14 12:03:25;;;;;;;3.90;1.05;;;;;;;;;;5113218;28;20088;-81
2023/10/14 12:05:59;;;;;;;4.57;1.00;;;;;;;;;;5111960;28;20047;-81
2023/10/14 12:08:32;;;;;;;4.00;1.00;;;;;;;;;;5093183;28;20313;-77
2023/10/14 12:10:59;;;;;;;4.00;1.10;;;;;;;;;;5111508;28;20051;-75
2023/10/14 12:13:26;;;;;;;2.92;0.88;;;;;;;;;;5111490;28;20040;-76
2023/10/14 12:16:13;;;;;;;6.57;1.42;;;;;;;;;;5111417;28;20709;-80
2023/10/14 12:18:42;;;;;;;3.58;1.08;;;;;;;;;;5111454;28;20055;-79
2023/10/14 12:21:08;;;;;;;4.35;1.02;;;;;;;;;;5111430;28;20044;-80
2023/10/14 12:23:35;;;;;;;8.70;1.30;;;;;;;;;;5111153;28;20054;-80
2023/10/14 12:26:02;;;;;;;3.20;0.85;;;;;;;;;;5092786;28;20052;-77
2023/10/14 12:28:30;;;;;;;5.00;0.85;;;;;;;;;;5111237;28;20047;-79
2023/10/14 12:31:08;;;;;;;5.78;1.08;;;;;;;;;;5111390;28;20507;-74
2023/10/14 12:33:38;;;;;;;3.50;1.13;;;;;;;;;;5110979;28;20472;-71
2023/10/14 12:36:09;;;;;;;7.57;1.40;;;;;;;;;;5111542;28;20043;-79
2023/10/14 12:38:42;;;;;;;4.40;1.25;;;;;;;;;;5110330;28;20040;-78
2023/10/14 12:41:21;;;;;;;5.90;1.45;;;;;;;;;;5111111;28;20040;-77
2023/10/14 12:43:52;;;;;;;6.00;1.40;;;;;;;;;;5110984;28;20135;-81
2023/10/14 12:46:19;;;;;;;4.55;1.40;;;;;;;;;;5110922;28;20056;-79
2023/10/14 12:48:48;;;;;;;3.17;1.20;;;;;;;;;;5110655;28;20047;-79
2023/10/14 12:51:37;;;;;;;5.82;1.45;;;;;;;;;;5093020;28;20136;-80
2023/10/14 12:54:08;;;;;;;6.20;1.35;;;;;;;;;;5110506;28;20055;-81
2023/10/14 12:56:38;;;;;;;7.15;1.55;;;;;;;;;;5109879;28;20124;-78
2023/10/14 12:59:12;;;;;;;3.15;1.20;;;;;;;;;;5092658;28;20040;-77
2023/10/14 13:01:46;;;;;;;5.55;1.50;;;;;;;;;;5110962;28;20075;-74
2023/10/14 13:04:16;;;;;;;4.97;1.40;;;;;;;;;;5110884;28;20073;-74
2023/10/14 13:06:46;;;;;;;6.65;1.52;;;;;;;;;;5111118;28;20050;-79
2023/10/14 13:09:14;;;;;;;4.47;1.40;;;;;;;;;;5109749;28;20407;-82
2023/10/14 13:11:43;;;;;;;8.55;1.80;;;;;;;;;;5110460;28;20039;-80
2023/10/14 13:14:25;;;;;;;3.67;1.30;;;;;;;;;;5092440;28;20125;-79
2023/10/14 13:16:59;;;;;;;5.00;1.50;;;;;;;;;;5110315;28;20560;-79
2023/10/14 13:19:34;;;;;;;7.18;1.60;;;;;;;;;;5110733;28;20043;-79
2023/10/14 13:22:11;;;;;;;6.18;1.70;;;;;;;;;;5110322;28;20078;-80
2023/10/14 13:24:38;;;;;;;4.20;1.40;;;;;;;;;;5109745;28;20116;-79
2023/10/14 13:27:05;;;;;;;5.32;1.50;;;;;;;;;;5092599;28;20048;-81
2023/10/14 13:29:32;;;;;;;6.75;1.83;;;;;;;;;;5110090;28;20052;-80
2023/10/14 13:31:59;;;;;;;8.35;1.70;;;;;;;;;;5110394;28;20051;-80
2023/10/14 13:34:26;;;;;;;4.05;1.40;;;;;;;;;;5110007;28;20054;-80
2023/10/14 13:36:53;;;;;;;7.97;1.85;;;;;;;;;;5109306;28;20134;-79
2023/10/14 13:39:25;;;;;;;6.57;1.70;;;;;;;;;;5109584;28;20044;-81
2023/10/14 13:41:53;;;;;;;5.90;1.88;;;;;;;;;;5092385;28;20123;-82
2023/10/14 13:44:21;;;;;;;10.30;2.05;;;;;;;;;;5109534;28;20044;-78
2023/10/14 13:46:47;;;;;;;3.00;1.35;;;;;;;;;;5109781;28;20388;-80
2023/10/14 13:49:23;;;;;;;5.72;1.58;;;;;;;;;;5109387;28;20491;-78
2023/10/14 13:51:54;;;;;;;8.27;1.88;;;;;;;;;;5108688;28;20135;-83
2023/10/14 13:54:23;;;;;;;6.28;2.00;;;;;;;;;;5109433;28;20055;-76
2023/10/14 13:56:51;;;;;;;3.63;1.60;;;;;;;;;;5110072;28;20043;-81
2023/10/14 13:59:21;;;;;;;9.05;1.90;;;;;;;;;;5109165;28;20537;-81
2023/10/14 14:01:49;;;;;;;3.50;1.40;;;;;;;;;;5109513;28;20056;-81
2023/10/14 14:04:17;;;;;;;6.22;1.92;;;;;;;;;;5109223;28;20461;-81
2023/10/14 14:06:45;;;;;;;6.18;1.90;;;;;;;;;;5109479;28;20043;-80
2023/10/14 14:09:11;;;;;;;5.63;1.45;;;;;;;;;;5108660;28;20092;-81
2023/10/14 14:11:38;;;;;;;5.05;1.38;;;;;;;;;;5109543;28;20081;-80
2023/10/14 14:14:05;;;;;;;4.20;1.52;;;;;;;;;;5109232;28;20441;-80
2023/10/14 14:16:31;;;;;;;5.40;1.40;;;;;;;;;;5108435;28;20070;-80
2023/10/14 14:19:00;;;;;;;3.13;1.13;;;;;;;;;;5109282;28;20075;-79
2023/10/14 14:21:27;;;;;;;5.38;1.50;;;;;;;;;;5109385;28;20099;-80
2023/10/14 14:23:54;;;;;;;2.85;1.10;;;;;;;;;;5108684;28;20052;-79
2023/10/14 14:26:21;;;;;;;5.60;1.45;;;;;;;;;;5091245;28;20048;-80
2023/10/14 14:28:49;;;;;;;6.20;1.50;;;;;;;;;;5108588;28;20102;-81
2023/10/14 14:31:16;;;;;;;6.25;1.50;;;;;;;;;;5109155;28;20051;-80
2023/10/14 14:33:45;;;;;;;6.68;1.17;;;;;;;;;;5109116;28;20379;-78
2023/10/14 14:36:12;;;;;;;4.47;1.40;;;;;;;;;;5108170;28;20507;-80
2023/10/14 14:38:40;;;;;;;3.65;1.20;;;;;;;;;;5108488;28;20052;-80
2023/10/14 14:41:12;;;;;;;3.92;1.30;;;;;;;;;;5109092;28;20437;-81
2023/10/14 14:43:41;;;;;;;2.15;1.00;;;;;;;;;;5090817;28;20237;-79
2023/10/14 14:46:08;;;;;;;4.93;1.30;;;;;;;;;;5109214;28;20491;-80
2023/10/14 14:48:35;;;;;;;6.20;1.35;;;;;;;;;;5110622;28;20175;-80
2023/10/14 14:51:03;;;;;;;3.95;1.58;;;;;;;;;;5113254;28;20044;-80
2023/10/14 14:53:31;;;;;;;7.30;1.40;;;;;;;;;;5113083;28;20130;-80
2023/10/14 14:55:59;;;;;;;4.38;1.77;;;;;;;;;;5112999;28;20054;-77
2023/10/14 14:58:29;;;;;;;2.67;1.13;;;;;;;;;;5113042;28;20043;-80
2023/10/14 15:00:56;;;;;;;4.72;1.23;;;;;;;;;;5095195;28;20039;-80
2023/10/14 15:03:23;;;;;;;4.30;1.00;;;;;;;;;;5113811;28;20048;-81
2023/10/14 15:05:50;;;;;;;4.47;1.35;;;;;;;;;;5113023;28;20418;-83
2023/10/14 15:08:18;;;;;;;2.20;1.20;;;;;;;;;;5112717;28;20079;-81
2023/10/14 15:10:45;;;;;;;3.17;1.05;;;;;;;;;;5112981;28;20044;-82
2023/10/14 15:13:17;;;;;;;3.70;1.40;;;;;;;;;;5113331;28;20100;-81
2023/10/14 15:15:49;;;;;;;3.85;1.38;;;;;;;;;;5112379;28;20111;-71
2023/10/14 15:18:18;;;;;;;3.45;1.00;;;;;;;;;;5112754;28;20067;-80
2023/10/14 15:20:45;;;;;;;3.47;1.20;;;;;;;;;;5094497;28;20044;-82
2023/10/14 15:23:14;;;;;;;3.50;1.38;;;;;;;;;;5112460;28;20540;-81
2023/10/14 15:25:41;;;;;;;5.90;1.65;;;;;;;;;;5113030;28;20050;-83
2023/10/14 15:28:11;;;;;;;5.35;1.42;;;;;;;;;;5114164;28;20523;-83
2023/10/14 15:30:41;;;;;;;4.57;1.50;;;;;;;;;;5114276;28;20130;-77
2023/10/14 15:33:09;;;;;;;9.38;1.65;;;;;;;;;;5114480;28;20051;-82
2023/10/14 15:35:37;;;;;;;5.10;1.50;;;;;;;;;;5113281;28;20043;-69
2023/10/14 15:38:08;;;;;;;4.60;1.38;;;;;;;;;;5112327;28;20048;-83
2023/10/14 15:40:35;;;;;;;2.63;1.02;;;;;;;;;;5112894;28;20043;-83
2023/10/14 15:43:06;;;;;;;5.50;1.60;;;;;;;;;;5112851;28;20039;-82
2023/10/14 15:45:35;;;;;;;4.20;1.50;;;;;;;;;;5112210;28;20130;-82